createdAt,value
2022-10-13T00:01:25.718Z,1.20
2022-10-13T00:03:54.797Z,1.67
2022-10-13T00:06:25.628Z,1.30
2022-10-13T00:08:54.363Z,1.25
2022-10-13T00:11:24.150Z,1.40
2022-10-13T00:13:53.171Z,1.30
2022-10-13T00:16:22.708Z,1.30
2022-10-13T00:18:52.662Z,1.40
2022-10-13T00:21:22.764Z,1.40
2022-10-13T00:23:51.642Z,1.48
2022-10-13T00:26:23.958Z,1.65
2022-10-13T00:28:53.377Z,1.30
2022-10-13T00:31:23.007Z,1.30
2022-10-13T00:33:52.985Z,1.15
2022-10-13T00:36:22.655Z,1.70
2022-10-13T00:38:51.261Z,1.45
2022-10-13T00:41:19.958Z,1.60
2022-10-13T00:43:50.721Z,1.50
2022-10-13T00:46:20.865Z,1.40
2022-10-13T00:48:58.693Z,1.45
2022-10-13T00:51:29.478Z,1.60
2022-10-13T00:53:58.765Z,1.63
2022-10-13T00:56:28.013Z,1.70
2022-10-13T00:58:57.524Z,1.80
2022-10-13T01:01:26.142Z,1.63
2022-10-13T01:03:54.721Z,1.55
2022-10-13T01:06:25.172Z,1.88
2022-10-13T01:08:54.737Z,1.52
2022-10-13T01:11:33.544Z,1.70
2022-10-13T01:14:05.637Z,1.60
2022-10-13T01:16:37.127Z,1.35
2022-10-13T01:19:12.925Z,1.75
2022-10-13T01:21:45.757Z,1.83
2022-10-13T01:24:31.955Z,1.63
2022-10-13T01:27:07.145Z,1.30
2022-10-13T01:29:54.140Z,1.58
2022-10-13T01:32:28.935Z,1.55
2022-10-13T01:35:02.548Z,1.63
2022-10-13T01:37:33.134Z,2.00
2022-10-13T01:40:06.938Z,1.30
2022-10-13T01:42:38.040Z,1.33
2022-10-13T01:45:08.645Z,1.50
2022-10-13T01:47:40.730Z,2.05
2022-10-13T01:50:10.000Z,1.70
2022-10-13T01:52:41.004Z,1.33
2022-10-13T01:55:10.901Z,1.50
2022-10-13T01:57:41.587Z,1.42
2022-10-13T02:00:11.309Z,1.95
2022-10-13T02:02:49.746Z,1.55
2022-10-13T02:05:24.572Z,1.60
2022-10-13T02:07:56.277Z,1.30
2022-10-13T02:10:30.450Z,1.73
2022-10-13T02:13:01.077Z,1.40
2022-10-13T02:15:32.798Z,1.60
2022-10-13T02:18:04.926Z,1.40
2022-10-13T02:20:33.873Z,1.50
2022-10-13T02:23:04.571Z,1.50
2022-10-13T02:25:33.462Z,1.60
2022-10-13T02:28:04.024Z,1.52
2022-10-13T02:30:34.457Z,1.58
2022-10-13T02:33:04.785Z,1.90
2022-10-13T02:35:33.676Z,1.55
2022-10-13T02:38:03.162Z,1.50
2022-10-13T02:40:31.789Z,1.40
2022-10-13T02:43:00.419Z,1.40
2022-10-13T02:45:29.025Z,1.60
2022-10-13T02:47:57.921Z,1.50
2022-10-13T02:50:28.127Z,1.63
2022-10-13T02:52:58.579Z,1.55
2022-10-13T02:55:27.342Z,1.35
2022-10-13T02:57:57.859Z,1.80
2022-10-13T03:00:26.723Z,1.67
2022-10-13T03:02:55.637Z,1.67
2022-10-13T03:05:24.225Z,1.90
2022-10-13T03:07:54.149Z,1.60
2022-10-13T03:10:22.709Z,1.45
2022-10-13T03:12:53.540Z,1.63
2022-10-13T03:15:22.216Z,1.80
2022-10-13T03:17:51.240Z,1.33
2022-10-13T03:20:20.083Z,1.60
2022-10-13T03:22:49.967Z,1.80
2022-10-13T03:25:20.131Z,1.77
2022-10-13T03:27:48.779Z,1.92
2022-10-13T03:30:17.352Z,1.55
2022-10-13T03:32:45.989Z,2.03
2022-10-13T03:35:14.613Z,1.60
2022-10-13T03:37:43.218Z,1.70
2022-10-13T03:40:12.666Z,2.10
2022-10-13T03:42:42.605Z,2.33
2022-10-13T03:45:11.540Z,1.80
2022-10-13T03:47:40.102Z,2.00
2022-10-13T03:50:09.242Z,1.88
2022-10-13T03:52:37.841Z,1.92
2022-10-13T03:55:06.914Z,2.00
2022-10-13T03:57:35.486Z,2.42
2022-10-13T04:00:10.634Z,2.30
2022-10-13T04:02:41.188Z,2.05
2022-10-13T04:05:10.120Z,2.30
2022-10-13T04:07:38.673Z,2.40
2022-10-13T04:10:20.217Z,2.10
2022-10-13T04:12:51.113Z,2.45
2022-10-13T04:15:21.080Z,2.10
2022-10-13T04:17:49.775Z,2.80
2022-10-13T04:20:18.359Z,2.35
2022-10-13T04:22:46.937Z,2.20
2022-10-13T04:25:15.493Z,2.67
2022-10-13T04:27:44.050Z,2.22
2022-10-13T04:30:13.731Z,2.28
2022-10-13T04:32:43.689Z,3.03
2022-10-13T04:35:13.253Z,2.92
2022-10-13T04:37:45.061Z,2.65
2022-10-13T04:40:14.165Z,2.80
2022-10-13T04:42:42.750Z,2.80
2022-10-13T04:45:11.761Z,2.70
2022-10-13T04:47:44.425Z,2.42
2022-10-13T04:50:13.013Z,2.78
2022-10-13T04:52:41.591Z,3.28
2022-10-13T04:55:10.297Z,2.75
2022-10-13T04:57:38.867Z,2.88
2022-10-13T05:00:08.349Z,2.63
2022-10-13T05:02:37.820Z,3.05
2022-10-13T05:05:08.774Z,2.58
2022-10-13T05:07:37.426Z,2.72
2022-10-13T05:10:06.230Z,3.22
2022-10-13T05:12:34.794Z,2.85
2022-10-13T05:15:03.790Z,2.80
2022-10-13T05:17:35.294Z,2.85
2022-10-13T05:20:11.152Z,3.13
2022-10-13T05:22:39.752Z,2.92
2022-10-13T05:25:08.544Z,3.00
2022-10-13T05:27:37.172Z,3.30
2022-10-13T05:30:08.377Z,2.70
2022-10-13T05:32:37.368Z,3.20
2022-10-13T05:35:06.449Z,3.08
2022-10-13T05:37:36.456Z,2.88
2022-10-13T05:40:05.336Z,3.45
2022-10-13T05:42:34.243Z,3.00
2022-10-13T05:45:02.773Z,2.97
2022-10-13T05:47:32.057Z,3.40
2022-10-13T05:50:00.616Z,2.90
2022-10-13T05:52:30.705Z,3.03
2022-10-13T05:55:02.329Z,3.83
2022-10-13T05:57:33.144Z,3.28
2022-10-13T06:00:03.070Z,2.80
2022-10-13T06:02:42.713Z,3.20
2022-10-13T06:05:14.888Z,3.20
2022-10-13T06:07:44.043Z,3.10
2022-10-13T06:10:14.257Z,3.13
2022-10-13T06:12:42.879Z,2.85
2022-10-13T06:15:11.962Z,3.15
2022-10-13T06:17:41.035Z,3.20
2022-10-13T06:20:10.475Z,3.33
2022-10-13T06:22:39.469Z,3.22
2022-10-13T06:25:08.929Z,3.60
2022-10-13T06:27:38.857Z,3.13
2022-10-13T06:30:07.912Z,3.25
2022-10-13T06:32:37.554Z,3.72
2022-10-13T06:35:06.463Z,3.42
2022-10-13T06:37:35.031Z,3.22
2022-10-13T06:40:03.624Z,3.60
2022-10-13T06:42:34.785Z,2.75
2022-10-13T06:45:13.646Z,3.60
2022-10-13T06:47:42.399Z,3.55
2022-10-13T06:50:11.473Z,3.22
2022-10-13T06:52:40.060Z,3.90
2022-10-13T06:55:08.847Z,3.40
2022-10-13T06:57:38.361Z,3.58
2022-10-13T07:00:08.815Z,3.50
2022-10-13T07:02:39.068Z,3.10
2022-10-13T07:05:07.850Z,3.30
2022-10-13T07:07:36.639Z,3.17
2022-10-13T07:10:05.388Z,3.10
2022-10-13T07:12:34.024Z,3.75
2022-10-13T07:15:02.598Z,2.78
2022-10-13T07:17:31.132Z,3.40
2022-10-13T07:20:03.680Z,3.22
2022-10-13T07:22:35.704Z,3.03
2022-10-13T07:25:04.375Z,3.13
2022-10-13T07:27:33.353Z,3.15
2022-10-13T07:30:01.937Z,2.75
2022-10-13T07:32:30.540Z,3.10
2022-10-13T07:34:59.200Z,3.08
2022-10-13T07:37:29.105Z,3.42
2022-10-13T07:40:00.408Z,3.78
2022-10-13T07:42:30.683Z,2.72
2022-10-13T07:44:59.269Z,3.38
2022-10-13T07:47:30.668Z,3.20
2022-10-13T07:49:59.238Z,2.88
2022-10-13T07:52:29.199Z,2.55
2022-10-13T07:54:57.752Z,3.20
2022-10-13T07:57:28.131Z,2.70
2022-10-13T07:59:56.706Z,2.70
2022-10-13T08:02:26.220Z,3.10
2022-10-13T08:04:54.831Z,2.70
2022-10-13T08:07:23.607Z,2.50
2022-10-13T08:09:53.575Z,2.53
2022-10-13T08:12:22.421Z,2.88
2022-10-13T08:14:52.267Z,3.20
2022-10-13T08:17:21.162Z,2.83
2022-10-13T08:19:49.938Z,3.10
2022-10-13T08:22:18.497Z,2.40
2022-10-13T08:24:47.175Z,2.42
2022-10-13T08:27:20.325Z,2.70
2022-10-13T08:29:49.114Z,2.55
2022-10-13T08:32:21.260Z,2.58
2022-10-13T08:34:50.173Z,3.17
2022-10-13T08:37:19.651Z,2.20
2022-10-13T08:39:48.270Z,2.22
2022-10-13T08:42:20.928Z,2.30
2022-10-13T08:45:28.896Z,2.40
2022-10-13T08:47:44.248Z,2.40
2022-10-13T08:50:15.242Z,2.40
2022-10-13T08:52:46.845Z,2.63
2022-10-13T08:55:19.832Z,2.40
2022-10-13T08:57:49.947Z,2.28
2022-10-13T09:00:19.339Z,3.45
2022-10-13T09:02:51.007Z,2.38
2022-10-13T09:05:24.010Z,1.75
2022-10-13T09:07:54.740Z,2.30
2022-10-13T09:10:23.973Z,2.17
2022-10-13T09:12:54.177Z,2.47
2022-10-13T09:15:23.152Z,2.88
2022-10-13T09:18:10.060Z,2.17
2022-10-13T09:20:38.728Z,2.10
2022-10-13T09:23:08.333Z,2.55
2022-10-13T09:25:41.505Z,1.88
2022-10-13T09:28:16.175Z,2.10
2022-10-13T09:30:47.051Z,1.80
2022-10-13T09:33:22.031Z,2.00
2022-10-13T09:35:51.846Z,2.20
2022-10-13T09:38:21.560Z,2.08
2022-10-13T09:41:01.739Z,1.88
2022-10-13T09:43:36.933Z,2.40
2022-10-13T09:46:13.203Z,2.00
2022-10-13T09:48:46.016Z,2.13
2022-10-13T09:51:29.193Z,2.00
2022-10-13T09:53:57.833Z,1.60
2022-10-13T09:56:28.860Z,1.92
2022-10-13T09:59:03.966Z,1.95
2022-10-13T10:01:34.516Z,1.95
2022-10-13T10:04:05.873Z,2.15
2022-10-13T10:06:35.929Z,1.83
2022-10-13T10:09:07.232Z,1.60
2022-10-13T10:11:39.421Z,1.73
2022-10-13T10:14:16.952Z,1.80
2022-10-13T10:16:47.287Z,2.10
2022-10-13T10:19:20.040Z,2.10
2022-10-13T10:21:52.032Z,1.70
2022-10-13T10:24:24.431Z,1.98
2022-10-13T10:26:58.261Z,2.00
2022-10-13T10:29:31.254Z,1.52
2022-10-13T10:32:07.220Z,1.63
2022-10-13T10:34:39.777Z,1.70
2022-10-13T10:37:15.480Z,1.85
2022-10-13T10:39:48.918Z,1.70
2022-10-13T10:42:33.043Z,1.50
2022-10-13T10:45:05.945Z,1.40
2022-10-13T10:47:38.446Z,1.45
2022-10-13T10:50:08.282Z,1.77
2022-10-13T10:52:44.940Z,1.77
2022-10-13T10:55:19.524Z,2.30
2022-10-13T10:57:54.156Z,1.45
2022-10-13T11:00:24.757Z,2.17
2022-10-13T11:02:58.691Z,1.90
2022-10-13T11:05:32.623Z,1.58
2022-10-13T11:08:01.784Z,1.58
2022-10-13T11:10:30.678Z,1.50
2022-10-13T11:13:17.435Z,2.25
2022-10-13T11:15:48.077Z,1.80
2022-10-13T11:18:35.621Z,1.58
2022-10-13T11:21:04.292Z,1.80
2022-10-13T11:23:35.964Z,1.70
2022-10-13T11:26:23.627Z,1.58
2022-10-13T11:28:52.680Z,1.70
2022-10-13T11:31:33.639Z,2.28
2022-10-13T11:34:05.476Z,2.05
2022-10-13T11:36:37.263Z,1.48
2022-10-13T11:39:12.479Z,2.10
2022-10-13T11:41:43.616Z,2.50
2022-10-13T11:44:15.359Z,2.25
2022-10-13T11:46:56.603Z,1.75
2022-10-13T11:49:39.838Z,2.10
2022-10-13T11:52:20.984Z,1.55
2022-10-13T11:54:51.108Z,1.90
2022-10-13T11:57:21.119Z,1.85
2022-10-13T11:59:51.587Z,1.70
2022-10-13T12:02:27.287Z,1.90
2022-10-13T12:05:08.867Z,2.13
2022-10-13T12:07:42.982Z,2.70
2022-10-13T12:10:18.123Z,1.63
2022-10-13T12:12:48.744Z,2.13
2022-10-13T12:15:29.614Z,2.15
2022-10-13T12:17:59.757Z,1.67
2022-10-13T12:20:31.958Z,1.73
2022-10-13T12:23:01.022Z,2.08
2022-10-13T12:25:30.691Z,1.65
2022-10-13T12:28:01.419Z,2.03
2022-10-13T12:30:31.116Z,1.95
2022-10-13T12:33:01.759Z,2.33
2022-10-13T12:35:31.156Z,1.60
2022-10-13T12:38:02.805Z,1.73
2022-10-13T12:40:32.505Z,2.00
2022-10-13T12:43:01.617Z,2.03
2022-10-13T12:45:32.321Z,1.63
2022-10-13T12:48:02.623Z,1.65
2022-10-13T12:50:38.388Z,2.10
2022-10-13T12:53:15.529Z,2.33
2022-10-13T12:55:48.695Z,1.92
2022-10-13T12:58:20.741Z,3.03
2022-10-13T13:00:57.251Z,2.10
2022-10-13T13:03:28.743Z,2.63
2022-10-13T13:06:09.550Z,1.85
2022-10-13T13:08:38.204Z,1.70
2022-10-13T13:11:08.062Z,1.65
2022-10-13T13:13:36.654Z,2.13
2022-10-13T13:16:18.339Z,1.90
2022-10-13T13:18:49.432Z,1.60
2022-10-13T13:21:20.456Z,2.10
2022-10-13T13:23:53.716Z,1.83
2022-10-13T13:26:23.747Z,1.80
2022-10-13T13:28:53.403Z,1.98
2022-10-13T13:31:22.968Z,1.48
2022-10-13T13:33:54.048Z,1.75
2022-10-13T13:36:23.783Z,1.98
2022-10-13T13:38:55.716Z,2.50
2022-10-13T13:41:27.708Z,1.98
2022-10-13T13:43:56.380Z,1.70
2022-10-13T13:46:26.105Z,1.77
2022-10-13T13:48:56.041Z,1.73
2022-10-13T13:51:24.617Z,3.65
2022-10-13T13:53:53.207Z,4.32
2022-10-13T13:56:22.328Z,2.08
2022-10-13T13:58:50.878Z,2.33
2022-10-13T14:01:19.526Z,1.98
2022-10-13T14:03:49.920Z,1.67
2022-10-13T14:06:21.428Z,1.92
2022-10-13T14:08:50.141Z,1.88
2022-10-13T14:11:19.075Z,1.80
2022-10-13T14:13:47.669Z,2.17
2022-10-13T14:16:26.473Z,2.00
2022-10-13T14:18:55.904Z,2.03
2022-10-13T14:21:27.747Z,2.10
2022-10-13T14:23:58.743Z,2.15
2022-10-13T14:26:27.377Z,1.80
2022-10-13T14:28:56.087Z,1.85
2022-10-13T14:31:24.745Z,1.80
2022-10-13T14:33:54.399Z,2.20
2022-10-13T14:36:25.832Z,2.03
2022-10-13T14:38:56.013Z,2.08
2022-10-13T14:41:24.798Z,2.28
2022-10-13T14:43:55.352Z,2.65
2022-10-13T14:46:24.320Z,2.25
2022-10-13T14:48:53.053Z,2.30
2022-10-13T14:51:21.626Z,1.85
2022-10-13T14:53:50.197Z,2.00
2022-10-13T14:56:21.657Z,2.08
2022-10-13T14:58:59.157Z,1.77
2022-10-13T15:01:33.449Z,1.83
2022-10-13T15:04:02.368Z,2.05
2022-10-13T15:06:32.884Z,2.03
2022-10-13T15:09:01.806Z,1.77
2022-10-13T15:11:32.003Z,2.60
2022-10-13T15:14:00.751Z,2.58
2022-10-13T15:16:30.611Z,2.10
2022-10-13T15:18:59.256Z,2.40
2022-10-13T15:21:28.162Z,2.10
2022-10-13T15:23:57.340Z,1.67
2022-10-13T15:26:25.932Z,2.03
2022-10-13T15:28:55.997Z,1.70
2022-10-13T15:31:25.235Z,2.00
2022-10-13T15:33:54.947Z,2.65
2022-10-13T15:36:25.474Z,2.40
2022-10-13T15:38:54.161Z,2.10
2022-10-13T15:41:25.515Z,2.55
2022-10-13T15:43:54.101Z,1.90
2022-10-13T15:46:24.432Z,2.33
2022-10-13T15:48:53.444Z,2.40
2022-10-13T15:51:24.076Z,1.80
2022-10-13T15:53:52.757Z,2.05
2022-10-13T15:56:21.398Z,1.90
2022-10-13T15:58:50.098Z,2.03
2022-10-13T16:01:18.753Z,2.00
2022-10-13T16:03:48.731Z,2.17
2022-10-13T16:06:17.293Z,2.88
2022-10-13T16:08:45.863Z,3.70
2022-10-13T16:11:15.696Z,4.13
2022-10-13T16:13:46.903Z,3.85
2022-10-13T16:16:15.926Z,2.58
2022-10-13T16:18:44.965Z,1.90
2022-10-13T16:21:18.508Z,2.20
2022-10-13T16:23:47.949Z,2.45
2022-10-13T16:26:17.438Z,2.85
2022-10-13T16:28:47.848Z,2.20
2022-10-13T16:31:17.918Z,2.38
2022-10-13T16:33:47.354Z,2.65
2022-10-13T16:36:18.316Z,2.40
2022-10-13T16:38:47.562Z,2.35
2022-10-13T16:41:16.901Z,3.10
2022-10-13T16:43:45.567Z,2.75
2022-10-13T16:46:15.156Z,2.50
2022-10-13T16:48:44.643Z,2.30
2022-10-13T16:51:14.456Z,2.58
2022-10-13T16:53:44.655Z,2.42
2022-10-13T16:56:14.345Z,2.28
2022-10-13T16:58:45.040Z,2.50
2022-10-13T17:01:14.058Z,2.28
2022-10-13T17:03:44.865Z,2.50
2022-10-13T17:06:14.140Z,2.08
2022-10-13T17:08:44.289Z,2.20
2022-10-13T17:11:17.036Z,2.67
2022-10-13T17:13:45.711Z,2.47
2022-10-13T17:16:14.305Z,2.17
2022-10-13T17:18:44.347Z,2.60
2022-10-13T17:21:14.139Z,3.50
2022-10-13T17:23:48.343Z,5.45
2022-10-13T17:26:17.974Z,4.13
2022-10-13T17:28:46.941Z,2.80
2022-10-13T17:31:16.545Z,2.78
2022-10-13T17:33:45.404Z,2.92
2022-10-13T17:36:15.076Z,2.83
2022-10-13T17:38:45.271Z,2.10
2022-10-13T17:41:14.101Z,2.88
2022-10-13T17:43:49.017Z,2.40
2022-10-13T17:49:07.782Z,2.90
2022-10-13T17:51:36.567Z,2.60
2022-10-13T17:54:09.187Z,2.50
2022-10-13T17:56:41.640Z,7.13
2022-10-13T17:59:10.968Z,3.47
2022-10-13T18:01:41.961Z,2.45
2022-10-13T18:04:12.595Z,2.92
2022-10-13T18:06:43.972Z,3.05
2022-10-13T18:09:14.915Z,3.20
2022-10-13T18:11:49.758Z,3.13
2022-10-13T18:14:19.159Z,3.42
2022-10-13T18:16:50.500Z,2.85
2022-10-13T18:19:19.155Z,3.15
2022-10-13T18:21:47.723Z,3.13
2022-10-13T18:24:17.744Z,3.00
2022-10-13T18:26:46.398Z,3.28
2022-10-13T18:29:15.132Z,2.83
2022-10-13T18:31:43.912Z,2.90
2022-10-13T18:34:13.877Z,3.95
2022-10-13T18:36:43.381Z,4.28
2022-10-13T18:39:13.785Z,3.65
2022-10-13T18:41:45.502Z,2.97
2022-10-13T18:44:14.199Z,2.85
2022-10-13T18:46:43.601Z,3.28
2022-10-13T18:49:13.877Z,3.15
2022-10-13T18:51:45.008Z,3.05
2022-10-13T18:54:13.601Z,3.38
2022-10-13T18:56:42.185Z,3.30
2022-10-13T18:59:12.483Z,3.35
2022-10-13T19:01:41.685Z,3.20
2022-10-13T19:04:12.686Z,3.35
2022-10-13T19:06:41.751Z,3.50
2022-10-13T19:09:10.950Z,3.35
2022-10-13T19:11:39.742Z,3.05
2022-10-13T19:14:10.929Z,3.50
2022-10-13T19:16:42.040Z,3.55
2022-10-13T19:19:10.678Z,3.95
2022-10-13T19:21:40.065Z,3.55
2022-10-13T19:24:10.560Z,3.83
2022-10-13T19:26:39.157Z,3.90
2022-10-13T19:29:08.641Z,3.08
2022-10-13T19:31:38.451Z,3.70
2022-10-13T19:34:12.465Z,3.33
2022-10-13T19:36:41.831Z,3.80
2022-10-13T19:39:11.904Z,4.25
2022-10-13T19:41:40.663Z,4.20
2022-10-13T19:44:09.261Z,3.60
2022-10-13T19:46:41.008Z,3.75
2022-10-13T19:49:11.461Z,4.22
2022-10-13T19:51:46.404Z,3.80
2022-10-13T19:54:15.061Z,3.65
2022-10-13T19:56:47.219Z,5.97
2022-10-13T19:59:16.297Z,17.80
2022-10-13T20:01:45.234Z,6.70
2022-10-13T20:04:20.494Z,3.75
2022-10-13T20:06:49.549Z,4.32
2022-10-13T20:09:18.926Z,3.60
2022-10-13T20:11:47.933Z,3.85
2022-10-13T20:14:16.826Z,3.72
2022-10-13T20:16:45.694Z,4.10
2022-10-13T20:19:15.063Z,3.60
2022-10-13T20:21:47.937Z,4.28
2022-10-13T20:24:16.700Z,3.70
2022-10-13T20:26:45.416Z,3.95
2022-10-13T20:29:14.072Z,4.47
2022-10-13T20:31:42.819Z,3.97
2022-10-13T20:34:11.852Z,3.70
2022-10-13T20:36:40.424Z,4.13
2022-10-13T20:39:10.711Z,3.53
2022-10-13T20:41:39.334Z,4.80
2022-10-13T20:44:07.923Z,3.75
2022-10-13T20:46:36.939Z,3.53
2022-10-13T20:49:13.625Z,3.97
2022-10-13T20:51:42.817Z,4.38
2022-10-13T20:54:14.207Z,3.70
2022-10-13T20:56:42.789Z,4.05
2022-10-13T20:59:12.217Z,3.78
2022-10-13T21:01:41.160Z,4.45
2022-10-13T21:04:09.740Z,4.30
2022-10-13T21:06:38.291Z,17.73
2022-10-13T21:09:07.359Z,8.00
2022-10-13T21:11:38.017Z,5.15
2022-10-13T21:14:09.533Z,4.90
2022-10-13T21:16:38.868Z,4.40
2022-10-13T21:19:15.089Z,5.03
2022-10-13T21:21:43.940Z,4.75
2022-10-13T21:24:12.964Z,4.63
2022-10-13T21:26:43.139Z,4.75
2022-10-13T21:29:15.295Z,4.88
2022-10-13T21:31:43.878Z,4.30
2022-10-13T21:34:12.906Z,4.60
2022-10-13T21:36:44.416Z,5.03
2022-10-13T21:39:15.121Z,4.53
2022-10-13T21:41:45.110Z,5.88
2022-10-13T21:44:14.815Z,5.18
2022-10-13T21:46:43.471Z,5.28
2022-10-13T21:49:12.040Z,4.95
2022-10-13T21:51:41.822Z,5.05
2022-10-13T21:54:11.538Z,4.85
2022-10-13T21:56:40.749Z,4.70
2022-10-13T21:59:12.406Z,4.85
2022-10-13T22:01:41.662Z,4.75
2022-10-13T22:04:14.483Z,5.15
2022-10-13T22:06:43.246Z,4.47
2022-10-13T22:09:12.391Z,4.70
2022-10-13T22:11:41.245Z,5.07
2022-10-13T22:14:14.676Z,22.80
2022-10-13T22:16:44.312Z,10.98
2022-10-13T22:19:13.090Z,6.70
2022-10-13T22:21:42.767Z,5.70
2022-10-13T22:24:13.234Z,4.60
2022-10-13T22:26:42.675Z,4.82
2022-10-13T22:29:12.608Z,5.00
2022-10-13T22:31:43.427Z,5.55
2022-10-13T22:34:13.011Z,4.43
2022-10-13T22:36:44.791Z,4.40
2022-10-13T22:39:13.609Z,4.95
2022-10-13T22:41:42.237Z,5.07
2022-10-13T22:44:10.873Z,4.80
2022-10-13T22:46:39.777Z,5.35
2022-10-13T22:49:14.678Z,5.15
2022-10-13T22:51:43.383Z,5.10
2022-10-13T22:54:12.509Z,5.45
2022-10-13T22:56:42.047Z,5.40
2022-10-13T22:59:11.013Z,5.22
2022-10-13T23:01:39.577Z,5.13
2022-10-13T23:04:08.309Z,5.32
2022-10-13T23:06:38.409Z,5.38
2022-10-13T23:09:09.261Z,5.28
2022-10-13T23:11:38.468Z,4.53
2022-10-13T23:14:07.970Z,5.13
2022-10-13T23:16:36.824Z,5.32
2022-10-13T23:19:05.577Z,5.47
2022-10-13T23:21:34.237Z,5.65
2022-10-13T23:24:05.740Z,5.50
2022-10-13T23:26:34.923Z,5.68
2022-10-13T23:29:03.558Z,5.05
2022-10-13T23:31:32.394Z,5.63
2022-10-13T23:34:00.945Z,6.00
2022-10-13T23:36:30.660Z,5.65
2022-10-13T23:39:00.576Z,5.43
2022-10-13T23:41:33.097Z,5.50
2022-10-13T23:44:02.255Z,5.57
2022-10-13T23:46:31.015Z,5.82
2022-10-13T23:48:59.588Z,5.43
2022-10-13T23:51:28.160Z,5.97
2022-10-13T23:53:57.333Z,5.68
2022-10-13T23:56:26.276Z,5.82
2022-10-13T23:58:56.216Z,5.55
